createdAt,value
2022-10-31T00:01:13.232Z,13.23
2022-10-31T00:03:41.575Z,13.20
2022-10-31T00:06:11.055Z,12.40
2022-10-31T00:08:39.391Z,13.23
2022-10-31T00:11:12.831Z,12.67
2022-10-31T00:13:41.240Z,13.70
2022-10-31T00:16:16.329Z,13.00
2022-10-31T00:18:44.773Z,12.53
2022-10-31T00:21:13.958Z,11.60
2022-10-31T00:23:42.341Z,12.30
2022-10-31T00:26:12.156Z,12.93
2022-10-31T00:28:40.637Z,13.10
2022-10-31T00:31:10.897Z,12.23
2022-10-31T00:33:40.818Z,12.27
2022-10-31T00:36:13.316Z,14.30
2022-10-31T00:38:42.820Z,13.23
2022-10-31T00:41:12.832Z,13.57
2022-10-31T00:43:43.263Z,14.20
2022-10-31T00:46:11.730Z,13.53
2022-10-31T00:48:40.052Z,13.37
2022-10-31T00:51:09.406Z,12.40
2022-10-31T00:53:38.014Z,13.17
2022-10-31T00:56:08.152Z,13.50
2022-10-31T00:58:38.032Z,13.37
2022-10-31T01:01:06.719Z,13.77
2022-10-31T01:03:36.808Z,14.00
2022-10-31T01:06:08.036Z,14.33
2022-10-31T01:08:37.133Z,15.30
2022-10-31T01:11:09.305Z,13.97
2022-10-31T01:13:39.373Z,13.40
2022-10-31T01:16:09.829Z,13.13
2022-10-31T01:18:38.212Z,12.97
2022-10-31T01:21:08.022Z,14.33
2022-10-31T01:23:36.534Z,14.57
2022-10-31T01:26:08.793Z,14.67
2022-10-31T01:28:40.403Z,13.20
2022-10-31T01:31:10.435Z,13.47
2022-10-31T01:33:39.980Z,14.40
2022-10-31T01:36:17.476Z,12.43
2022-10-31T01:38:46.280Z,12.80
2022-10-31T01:41:17.006Z,14.07
2022-10-31T01:43:50.111Z,15.57
2022-10-31T01:46:22.755Z,14.77
2022-10-31T01:48:52.050Z,13.67
2022-10-31T01:51:24.432Z,14.63
2022-10-31T01:53:56.537Z,15.43
2022-10-31T01:56:25.097Z,14.17
2022-10-31T01:58:57.061Z,14.33
2022-10-31T02:01:25.907Z,15.20
2022-10-31T02:03:54.632Z,15.17
2022-10-31T02:06:35.962Z,15.00
2022-10-31T02:09:06.537Z,14.30
2022-10-31T02:11:36.973Z,14.10
2022-10-31T02:14:07.049Z,13.93
2022-10-31T02:16:35.433Z,13.73
2022-10-31T02:19:07.821Z,14.27
2022-10-31T02:21:44.914Z,13.73
2022-10-31T02:24:46.805Z,14.03
2022-10-31T02:27:52.793Z,12.83
2022-10-31T02:30:25.030Z,14.80
2022-10-31T02:33:17.122Z,13.47
2022-10-31T02:35:57.878Z,13.03
2022-10-31T02:38:37.845Z,14.50
2022-10-31T02:41:19.108Z,14.03
2022-10-31T02:44:02.672Z,14.80
2022-10-31T02:46:37.429Z,15.20
2022-10-31T02:49:17.358Z,14.17
2022-10-31T02:51:46.121Z,13.70
2022-10-31T02:54:21.989Z,14.73
2022-10-31T02:57:00.237Z,13.83
2022-10-31T02:59:31.872Z,13.67
2022-10-31T03:02:18.326Z,16.17
2022-10-31T03:05:01.043Z,14.60
2022-10-31T03:07:39.877Z,13.90
2022-10-31T03:10:19.939Z,14.60
2022-10-31T03:12:59.255Z,15.10
2022-10-31T03:15:31.631Z,13.70
2022-10-31T03:18:06.816Z,14.77
2022-10-31T03:20:41.809Z,15.70
2022-10-31T03:23:14.633Z,16.10
2022-10-31T03:25:44.265Z,15.10
2022-10-31T03:28:14.914Z,14.37
2022-10-31T03:30:46.544Z,13.83
2022-10-31T03:33:19.030Z,14.87
2022-10-31T03:35:52.965Z,14.97
2022-10-31T03:38:22.392Z,14.53
2022-10-31T03:40:54.016Z,15.17
2022-10-31T03:43:27.186Z,14.83
2022-10-31T03:45:55.805Z,14.60
2022-10-31T03:48:24.923Z,14.20
2022-10-31T03:51:05.607Z,15.50
2022-10-31T03:53:39.830Z,15.10
2022-10-31T03:56:14.914Z,14.87
2022-10-31T03:58:47.507Z,14.33
2022-10-31T04:01:19.339Z,15.37
2022-10-31T04:03:48.729Z,16.93
2022-10-31T04:06:21.115Z,15.03
2022-10-31T04:08:53.286Z,16.27
2022-10-31T04:11:26.868Z,15.03
2022-10-31T04:14:17.989Z,15.13
2022-10-31T04:16:47.807Z,15.10
2022-10-31T04:19:16.986Z,15.00
2022-10-31T04:21:46.725Z,16.00
2022-10-31T04:24:14.969Z,14.77
2022-10-31T04:26:43.257Z,14.50
2022-10-31T04:29:11.540Z,15.10
2022-10-31T04:31:40.177Z,14.40
2022-10-31T04:34:09.245Z,15.77
2022-10-31T04:36:37.669Z,14.20
2022-10-31T04:39:07.417Z,13.83
2022-10-31T04:41:48.031Z,12.67
2022-10-31T04:44:17.443Z,13.00
2022-10-31T04:46:49.125Z,12.93
2022-10-31T04:49:17.552Z,12.63
2022-10-31T04:51:46.917Z,12.43
2022-10-31T04:54:17.226Z,12.60
2022-10-31T04:57:17.736Z,12.50
2022-10-31T04:59:46.693Z,11.97
2022-10-31T05:02:15.100Z,12.57
2022-10-31T05:04:56.289Z,11.20
2022-10-31T05:07:24.792Z,11.70
2022-10-31T05:09:54.472Z,12.53
2022-10-31T05:12:22.846Z,12.87
2022-10-31T05:15:17.787Z,11.83
2022-10-31T05:18:05.063Z,11.30
2022-10-31T05:20:52.184Z,11.07
2022-10-31T05:23:31.494Z,10.60
2022-10-31T05:26:01.189Z,12.07
2022-10-31T05:28:29.581Z,10.07
2022-10-31T05:30:57.940Z,11.47
2022-10-31T05:33:26.331Z,10.13
2022-10-31T05:36:12.944Z,11.37
2022-10-31T05:38:50.792Z,11.03
2022-10-31T05:41:27.309Z,11.53
2022-10-31T05:44:04.672Z,11.73
2022-10-31T05:46:36.981Z,10.87
2022-10-31T05:49:34.054Z,10.83
2022-10-31T05:52:05.829Z,10.37
2022-10-31T05:54:43.147Z,10.47
2022-10-31T05:57:12.846Z,11.20
2022-10-31T05:59:41.106Z,10.80
2022-10-31T06:02:09.883Z,11.43
2022-10-31T06:04:56.952Z,11.47
2022-10-31T06:07:25.390Z,10.67
2022-10-31T06:09:54.180Z,10.80
2022-10-31T06:12:25.062Z,11.87
2022-10-31T06:15:31.659Z,11.30
2022-10-31T06:18:05.492Z,12.03
2022-10-31T06:20:48.065Z,11.50
2022-10-31T06:23:17.465Z,11.70
2022-10-31T06:25:51.033Z,12.00
2022-10-31T06:28:20.872Z,11.10
2022-10-31T06:30:54.355Z,12.23
2022-10-31T06:33:23.530Z,11.23
2022-10-31T06:35:59.675Z,11.53
2022-10-31T06:38:28.823Z,12.67
2022-10-31T06:40:57.878Z,11.33
2022-10-31T06:43:30.949Z,10.67
2022-10-31T06:46:22.639Z,10.20
2022-10-31T06:49:09.912Z,9.80
2022-10-31T06:51:58.513Z,10.60
2022-10-31T06:54:26.862Z,10.67
2022-10-31T06:56:56.095Z,10.40
2022-10-31T06:59:26.358Z,10.07
2022-10-31T07:02:07.816Z,10.67
2022-10-31T07:04:36.661Z,9.80
2022-10-31T07:07:05.165Z,10.63
2022-10-31T07:09:34.529Z,11.57
2022-10-31T07:12:05.718Z,12.23
2022-10-31T07:14:39.441Z,13.77
2022-10-31T07:17:08.794Z,13.87
2022-10-31T07:19:41.142Z,14.00
2022-10-31T07:22:10.817Z,12.30
2022-10-31T07:24:40.500Z,13.53
2022-10-31T07:27:27.402Z,13.20
2022-10-31T07:29:57.225Z,12.03
2022-10-31T07:32:25.477Z,12.27
2022-10-31T07:34:58.634Z,11.27
2022-10-31T07:37:35.408Z,12.30
2022-10-31T07:40:04.062Z,11.60
2022-10-31T07:42:37.192Z,12.27
2022-10-31T07:45:09.168Z,11.83
2022-10-31T07:48:12.529Z,10.50
2022-10-31T07:50:59.493Z,11.27
2022-10-31T07:53:48.072Z,10.07
2022-10-31T07:56:29.690Z,10.07
2022-10-31T07:58:58.182Z,9.77
2022-10-31T08:01:27.809Z,10.53
2022-10-31T08:04:16.053Z,10.13
2022-10-31T08:07:03.398Z,11.17
2022-10-31T08:09:36.360Z,10.43
2022-10-31T08:12:12.239Z,11.07
2022-10-31T08:14:40.612Z,10.20
2022-10-31T08:17:10.600Z,10.27
2022-10-31T08:19:48.653Z,10.87
2022-10-31T08:22:18.226Z,10.80
2022-10-31T08:24:46.507Z,10.20
2022-10-31T08:27:14.753Z,10.90
2022-10-31T08:29:43.091Z,9.50
2022-10-31T08:32:12.812Z,10.20
2022-10-31T08:34:59.884Z,10.40
2022-10-31T08:37:43.679Z,10.90
2022-10-31T08:40:14.188Z,9.20
2022-10-31T08:42:42.592Z,10.40
2022-10-31T08:45:11.967Z,10.57
2022-10-31T08:47:41.696Z,10.70
2022-10-31T08:50:10.607Z,9.40
2022-10-31T08:53:03.740Z,11.13
2022-10-31T08:55:28.656Z,9.93
2022-10-31T08:58:06.589Z,9.17
2022-10-31T09:00:48.157Z,9.80
2022-10-31T09:03:22.708Z,10.57
2022-10-31T09:05:51.795Z,10.13
2022-10-31T09:08:20.118Z,9.77
2022-10-31T09:10:49.804Z,9.70
2022-10-31T09:13:27.992Z,10.57
2022-10-31T09:16:28.886Z,10.50
2022-10-31T09:18:58.651Z,10.10
2022-10-31T09:21:27.175Z,9.80
2022-10-31T09:23:55.462Z,10.47
2022-10-31T09:26:24.656Z,10.57
2022-10-31T09:29:19.026Z,10.53
2022-10-31T09:31:51.699Z,9.47
2022-10-31T09:34:36.779Z,10.70
2022-10-31T09:37:08.119Z,10.93
2022-10-31T09:39:37.294Z,9.97
2022-10-31T09:42:39.955Z,10.53
2022-10-31T09:45:21.017Z,11.53
2022-10-31T09:48:04.453Z,10.40
2022-10-31T09:50:42.052Z,9.83
2022-10-31T09:53:41.911Z,9.97
2022-10-31T09:56:15.895Z,10.57
2022-10-31T09:58:46.924Z,10.43
2022-10-31T10:01:28.388Z,9.97
2022-10-31T10:04:01.722Z,9.13
2022-10-31T10:06:54.795Z,9.13
2022-10-31T10:09:41.148Z,9.80
2022-10-31T10:12:50.481Z,8.17
2022-10-31T10:15:38.952Z,9.50
2022-10-31T10:18:16.465Z,8.77
2022-10-31T10:20:54.391Z,8.43
2022-10-31T10:23:40.658Z,9.57
2022-10-31T10:26:20.801Z,9.07
2022-10-31T10:28:54.203Z,7.53
2022-10-31T10:31:26.763Z,9.50
2022-10-31T10:34:03.653Z,8.37
2022-10-31T10:36:39.858Z,7.90
2022-10-31T10:39:16.603Z,9.13
2022-10-31T10:42:03.165Z,7.93
2022-10-31T10:44:48.719Z,8.00
2022-10-31T10:47:34.277Z,8.03
2022-10-31T10:50:09.120Z,8.00
2022-10-31T10:52:50.191Z,7.07
2022-10-31T10:55:31.579Z,7.90
2022-10-31T10:58:03.764Z,7.70
2022-10-31T11:00:34.271Z,7.20
2022-10-31T11:03:03.112Z,7.57
2022-10-31T11:05:41.303Z,7.50
2022-10-31T11:08:10.159Z,7.33
2022-10-31T11:10:39.885Z,6.60
2022-10-31T11:13:24.368Z,6.73
2022-10-31T11:15:57.698Z,7.00
2022-10-31T11:18:28.794Z,6.33
2022-10-31T11:20:58.821Z,6.77
2022-10-31T11:23:28.328Z,6.43
2022-10-31T11:26:00.026Z,6.20
2022-10-31T11:28:30.390Z,6.03
2022-10-31T11:31:00.843Z,6.53
2022-10-31T11:33:34.458Z,6.07
2022-10-31T11:36:04.371Z,5.93
2022-10-31T11:38:37.282Z,5.93
2022-10-31T11:41:15.248Z,6.67
2022-10-31T11:43:51.948Z,6.40
2022-10-31T11:46:24.037Z,7.00
2022-10-31T11:48:56.672Z,5.80
2022-10-31T11:51:28.404Z,6.53
2022-10-31T11:54:02.680Z,6.93
2022-10-31T11:56:42.120Z,6.85
2022-10-31T11:59:20.946Z,5.70
2022-10-31T12:01:51.736Z,6.83
2022-10-31T12:04:20.541Z,5.78
2022-10-31T12:06:51.110Z,6.90
2022-10-31T12:09:24.199Z,6.45
2022-10-31T12:12:10.042Z,6.23
2022-10-31T12:14:46.526Z,5.87
2022-10-31T12:17:19.130Z,5.75
2022-10-31T12:20:00.762Z,6.23
2022-10-31T12:22:39.464Z,6.20
2022-10-31T12:25:23.548Z,7.00
2022-10-31T12:28:14.946Z,6.07
2022-10-31T12:30:55.628Z,6.20
2022-10-31T12:33:48.227Z,6.28
2022-10-31T12:36:28.005Z,6.03
2022-10-31T12:39:17.352Z,7.20
2022-10-31T12:41:53.320Z,6.03
2022-10-31T12:44:42.964Z,6.10
2022-10-31T12:47:36.501Z,6.15
2022-10-31T12:50:22.342Z,6.60
2022-10-31T12:53:03.151Z,6.20
2022-10-31T12:55:43.733Z,5.97
2022-10-31T12:58:19.647Z,6.30
2022-10-31T13:00:53.296Z,5.88
2022-10-31T13:03:34.721Z,6.18
2022-10-31T13:06:09.446Z,6.80
2022-10-31T13:08:43.982Z,6.22
2022-10-31T13:11:19.358Z,5.85
2022-10-31T13:13:54.507Z,5.78
2022-10-31T13:16:28.053Z,5.72
2022-10-31T13:19:01.137Z,6.72
2022-10-31T13:21:38.526Z,5.28
2022-10-31T13:24:14.539Z,6.05
2022-10-31T13:26:48.343Z,5.75
2022-10-31T13:29:23.839Z,4.82
2022-10-31T13:31:56.314Z,6.88
2022-10-31T13:34:31.051Z,6.50
2022-10-31T13:37:08.073Z,5.38
2022-10-31T13:40:04.609Z,7.03
2022-10-31T13:42:47.970Z,5.93
2022-10-31T13:45:21.463Z,6.35
2022-10-31T13:48:01.280Z,5.35
2022-10-31T13:50:31.339Z,6.88
2022-10-31T13:53:23.608Z,5.50
2022-10-31T13:56:05.147Z,6.18
2022-10-31T13:58:34.196Z,6.72
2022-10-31T14:01:14.778Z,7.05
2022-10-31T14:04:11.136Z,6.13
2022-10-31T14:06:43.296Z,6.75
2022-10-31T14:09:33.044Z,6.35
2022-10-31T14:12:06.004Z,6.15
2022-10-31T14:14:47.512Z,6.60
2022-10-31T14:17:22.334Z,6.67
2022-10-31T14:20:25.004Z,5.47
2022-10-31T14:22:55.033Z,6.33
2022-10-31T14:25:41.329Z,7.47
2022-10-31T14:28:22.786Z,6.20
2022-10-31T14:30:55.260Z,5.70
2022-10-31T14:33:26.300Z,6.95
2022-10-31T14:36:02.779Z,6.13
2022-10-31T14:38:57.082Z,6.73
2022-10-31T14:41:47.590Z,6.30
2022-10-31T14:44:47.665Z,6.30
2022-10-31T14:47:25.718Z,6.63
2022-10-31T14:50:13.214Z,7.50
2022-10-31T14:52:43.235Z,5.78
2022-10-31T14:55:15.613Z,6.30
2022-10-31T14:57:53.268Z,6.00
2022-10-31T15:00:23.242Z,6.53
2022-10-31T15:03:02.627Z,7.03
2022-10-31T15:05:32.507Z,7.23
2022-10-31T15:08:01.208Z,6.27
2022-10-31T15:10:33.252Z,6.65
2022-10-31T15:13:11.715Z,7.57
2022-10-31T15:15:42.385Z,7.18
2022-10-31T15:18:19.395Z,6.77
2022-10-31T15:20:48.586Z,7.03
2022-10-31T15:23:22.923Z,6.38
2022-10-31T15:25:52.980Z,6.43
2022-10-31T15:28:26.607Z,6.30
2022-10-31T15:30:56.733Z,6.67
2022-10-31T15:33:28.006Z,6.77
2022-10-31T15:36:01.580Z,6.67
2022-10-31T15:38:31.301Z,6.77
2022-10-31T15:41:03.996Z,5.83
2022-10-31T15:43:41.416Z,6.57
2022-10-31T15:46:11.566Z,6.47
2022-10-31T15:48:41.657Z,6.72
2022-10-31T15:51:10.067Z,7.10
2022-10-31T15:53:43.961Z,6.53
2022-10-31T15:56:16.211Z,6.83
2022-10-31T15:58:48.840Z,7.67
2022-10-31T16:01:25.609Z,8.13
2022-10-31T16:04:06.580Z,7.00
2022-10-31T16:06:36.451Z,7.60
2022-10-31T16:09:06.259Z,7.70
2022-10-31T16:11:39.316Z,7.30
2022-10-31T16:14:25.349Z,8.93
2022-10-31T16:16:55.660Z,6.73
2022-10-31T16:19:26.520Z,7.47
2022-10-31T16:21:57.779Z,7.00
2022-10-31T16:24:29.451Z,7.20
2022-10-31T16:27:04.936Z,7.17
2022-10-31T16:29:38.528Z,7.60
2022-10-31T16:32:07.828Z,7.43
2022-10-31T16:34:36.126Z,8.07
2022-10-31T16:37:04.571Z,7.70
2022-10-31T16:39:32.789Z,7.80
2022-10-31T16:42:02.512Z,7.60
2022-10-31T16:44:31.842Z,7.13
2022-10-31T16:47:14.597Z,8.77
2022-10-31T16:49:43.622Z,7.93
2022-10-31T16:52:12.014Z,6.80
2022-10-31T16:54:40.356Z,7.63
2022-10-31T16:57:16.360Z,7.83
2022-10-31T16:59:45.839Z,7.57
2022-10-31T17:02:17.146Z,7.50
2022-10-31T17:04:47.584Z,7.53
2022-10-31T17:07:17.975Z,6.70
2022-10-31T17:09:46.192Z,7.90
2022-10-31T17:12:21.021Z,7.77
2022-10-31T17:14:52.850Z,7.27
2022-10-31T17:17:21.167Z,8.63
2022-10-31T17:19:49.338Z,7.77
2022-10-31T17:22:17.582Z,7.40
2022-10-31T17:24:45.864Z,7.73
2022-10-31T17:27:14.043Z,7.47
2022-10-31T17:29:43.737Z,7.43
2022-10-31T17:32:11.991Z,7.33
2022-10-31T17:34:40.144Z,7.23
2022-10-31T17:37:09.420Z,7.43
2022-10-31T17:39:37.652Z,8.27
2022-10-31T17:42:06.058Z,8.37
2022-10-31T17:44:34.282Z,7.53
2022-10-31T17:47:03.943Z,7.67
2022-10-31T17:49:32.084Z,7.83
2022-10-31T17:52:00.300Z,7.97
2022-10-31T17:54:28.486Z,7.77
2022-10-31T17:56:56.781Z,8.40
2022-10-31T17:59:24.926Z,8.73
2022-10-31T18:01:53.338Z,8.63
2022-10-31T18:04:24.070Z,8.27
2022-10-31T18:06:53.589Z,8.50
2022-10-31T18:09:22.003Z,7.87
2022-10-31T18:11:50.250Z,8.37
2022-10-31T18:14:18.458Z,7.80
2022-10-31T18:16:46.682Z,7.83
2022-10-31T18:19:16.456Z,8.00
2022-10-31T18:21:46.883Z,8.03
2022-10-31T18:24:15.193Z,8.73
2022-10-31T18:26:43.366Z,8.87
2022-10-31T18:29:11.771Z,8.60
2022-10-31T18:31:40.925Z,8.83
2022-10-31T18:34:10.338Z,8.80
2022-10-31T18:36:38.543Z,9.13
2022-10-31T18:39:08.156Z,7.93
2022-10-31T18:41:38.269Z,8.70
2022-10-31T18:44:07.107Z,7.93
2022-10-31T18:46:36.436Z,8.73
2022-10-31T18:49:05.943Z,8.33
2022-10-31T18:51:34.453Z,9.53
2022-10-31T18:54:02.969Z,8.90
2022-10-31T18:56:33.616Z,9.67
2022-10-31T18:59:03.314Z,8.90
2022-10-31T19:01:32.073Z,8.97
2022-10-31T19:04:00.729Z,8.20
2022-10-31T19:06:30.987Z,9.37
2022-10-31T19:09:00.690Z,8.53
2022-10-31T19:11:29.210Z,9.07
2022-10-31T19:13:59.703Z,10.03
2022-10-31T19:16:29.430Z,9.57
2022-10-31T19:19:00.141Z,9.77
2022-10-31T19:21:30.497Z,8.63
2022-10-31T19:23:59.323Z,8.83
2022-10-31T19:26:28.655Z,9.03
2022-10-31T19:28:57.732Z,9.60
2022-10-31T19:31:28.402Z,8.67
2022-10-31T19:33:56.639Z,8.77
2022-10-31T19:36:25.364Z,9.83
2022-10-31T19:38:55.188Z,9.53
2022-10-31T19:41:26.201Z,8.60
2022-10-31T19:43:55.318Z,8.87
2022-10-31T19:46:48.219Z,8.90
2022-10-31T19:49:14.745Z,9.03
2022-10-31T19:51:42.902Z,8.37
2022-10-31T19:54:11.991Z,7.93
2022-10-31T19:56:40.208Z,8.43
2022-10-31T19:59:08.366Z,7.63
2022-10-31T20:01:36.752Z,8.83
2022-10-31T20:04:05.268Z,9.37
2022-10-31T20:06:37.818Z,8.60
2022-10-31T20:09:08.479Z,8.73
2022-10-31T20:11:39.096Z,8.80
2022-10-31T20:14:08.250Z,8.57
2022-10-31T20:16:36.425Z,9.10
2022-10-31T20:19:05.414Z,8.30
2022-10-31T20:21:38.361Z,8.57
2022-10-31T20:24:08.922Z,7.17
2022-10-31T20:26:38.079Z,7.57
2022-10-31T20:29:06.617Z,8.00
2022-10-31T20:31:37.360Z,7.37
2022-10-31T20:34:05.728Z,6.53
2022-10-31T20:36:36.760Z,8.00
2022-10-31T20:39:06.468Z,7.93
2022-10-31T20:41:37.927Z,8.03
2022-10-31T20:44:06.662Z,7.70
2022-10-31T20:46:34.966Z,7.23
2022-10-31T20:49:03.847Z,7.73
2022-10-31T20:51:32.504Z,7.30
2022-10-31T20:54:02.497Z,8.67
2022-10-31T20:56:30.758Z,7.70
2022-10-31T20:58:59.611Z,7.67
2022-10-31T21:01:29.953Z,6.93
2022-10-31T21:03:59.482Z,7.63
2022-10-31T21:06:29.641Z,7.97
2022-10-31T21:08:58.604Z,7.43
2022-10-31T21:11:29.110Z,7.60
2022-10-31T21:13:59.604Z,8.13
2022-10-31T21:16:29.817Z,7.57
2022-10-31T21:18:58.609Z,8.23
2022-10-31T21:21:32.199Z,8.73
2022-10-31T21:24:03.082Z,7.93
2022-10-31T21:26:35.563Z,7.43
2022-10-31T21:29:05.720Z,8.67
2022-10-31T21:31:35.875Z,8.70
2022-10-31T21:34:04.581Z,7.40
2022-10-31T21:36:33.083Z,7.87
2022-10-31T21:39:01.857Z,8.00
2022-10-31T21:41:30.115Z,7.33
2022-10-31T21:44:00.084Z,7.63
2022-10-31T21:46:29.886Z,7.93
2022-10-31T21:48:58.632Z,8.23
2022-10-31T21:51:29.092Z,8.17
2022-10-31T21:54:15.473Z,7.90
2022-10-31T21:56:44.267Z,7.83
2022-10-31T21:59:13.870Z,7.60
2022-10-31T22:01:42.410Z,7.83
2022-10-31T22:04:10.715Z,8.27
2022-10-31T22:06:39.300Z,7.97
2022-10-31T22:09:09.135Z,8.00
2022-10-31T22:11:37.430Z,9.07
2022-10-31T22:14:06.219Z,7.93
2022-10-31T22:16:37.483Z,7.27
2022-10-31T22:19:07.617Z,7.90
2022-10-31T22:21:41.539Z,8.20
2022-10-31T22:24:11.322Z,7.63
2022-10-31T22:26:40.161Z,8.20
2022-10-31T22:29:13.107Z,8.07
2022-10-31T22:31:44.241Z,7.73
2022-10-31T22:34:15.233Z,8.30
2022-10-31T22:36:44.160Z,7.03
2022-10-31T22:39:13.867Z,8.50
2022-10-31T22:41:42.293Z,8.37
2022-10-31T22:44:10.686Z,8.80
2022-10-31T22:46:40.675Z,8.47
2022-10-31T22:49:14.707Z,8.50
2022-10-31T22:51:44.097Z,9.07
2022-10-31T22:54:14.637Z,9.00
2022-10-31T22:56:44.084Z,8.17
2022-10-31T22:59:13.608Z,8.00
2022-10-31T23:01:42.408Z,8.03
2022-10-31T23:06:45.630Z,10.20
2022-10-31T23:09:16.509Z,8.93
2022-10-31T23:11:45.438Z,8.67
2022-10-31T23:14:16.323Z,9.07
2022-10-31T23:16:48.174Z,10.07
2022-10-31T23:19:22.651Z,9.40
2022-10-31T23:27:54.943Z,10.37
2022-10-31T23:29:32.763Z,9.70
2022-10-31T23:32:00.936Z,9.67
2022-10-31T23:34:30.718Z,9.80
2022-10-31T23:36:59.151Z,10.30
2022-10-31T23:39:27.371Z,10.90
2022-10-31T23:41:55.503Z,10.30
2022-10-31T23:44:23.663Z,9.80
2022-10-31T23:46:51.933Z,9.35
2022-10-31T23:49:20.095Z,10.52
2022-10-31T23:51:49.757Z,9.93
2022-10-31T23:54:18.144Z,10.30
2022-10-31T23:56:46.287Z,9.80
2022-10-31T23:59:14.729Z,10.15
